This is the latest recevied weather packets stored in our database for station/object K3HW. If no packets are shown the sender has not sent any weather packets the latest 10 day(s).
| Time | Temp. | Humidity | Pressure | Rain* | Wind** | Luminosity | Snow |
|---|---|---|---|---|---|---|---|
| 1778170478 | 16.11° C | 42% | 1014.4 hPa | 0 mm | - | 839 W/m² | - |
| 1778170175 | 15.56° C | 46% | 1014.4 hPa | 0 mm | - | 784 W/m² | - |
| 1778169872 | 15.56° C | 46% | 1014.5 hPa | 0 mm | - | 774 W/m² | - |
| 1778169567 | 15.56° C | 46% | 1014.7 hPa | 0 mm | - | 784 W/m² | - |
| 1778169264 | 15° C | 46% | 1014.6 hPa | 0 mm | - | 771 W/m² | - |
| 1778168961 | 15.56° C | 44% | 1014.7 hPa | 0 mm | - | 761 W/m² | - |
| 1778168355 | 14.44° C | 46% | 1014.8 hPa | 0 mm | - | 752 W/m² | - |
| 1778168051 | 14.44° C | 46% | 1014.8 hPa | 0 mm | - | 751 W/m² | - |
| 1778167140 | 15° C | 46% | 1015.2 hPa | 0 mm | - | 143 W/m² | - |
| 1778166836 | 15° C | 52% | 1015 hPa | 0 mm | - | 742 W/m² | - |
| 1778166534 | 14.44° C | 50% | 1015.2 hPa | 0 mm | - | 741 W/m² | - |
| 1778166230 | 14.44° C | 53% | 1015.2 hPa | 0 mm | - | 618 W/m² | - |
| 1778165926 | 14.44° C | 58% | 1015.2 hPa | 0 mm | - | 111 W/m² | - |
| 1778165623 | 14.44° C | 54% | 1015.5 hPa | 0 mm | - | 128 W/m² | - |
| 1778165320 | 13.89° C | 57% | 1015.4 hPa | 0 mm | - | 163 W/m² | - |
| 1778164714 | 13.33° C | 58% | 1015.5 hPa | 0 mm | - | 279 W/m² | - |
| 1778164411 | 12.78° C | 60% | 1015.5 hPa | 0 mm | - | 149 W/m² | - |
| 1778164107 | 12.78° C | 58% | 1015.4 hPa | 0 mm | - | 171 W/m² | - |
| 1778163803 | 12.78° C | 59% | 1015.6 hPa | 0 mm | - | 165 W/m² | - |
| 1778163197 | 12.78° C | 61% | 1015.5 hPa | 0 mm | - | 166 W/m² | - |
| 1778162288 | 12.22° C | 63% | 1015.6 hPa | 0 mm | - | 177 W/m² | - |
| 1778161682 | 12.22° C | 63% | 1015.7 hPa | 0 mm | - | 142 W/m² | - |
| 1778161378 | 12.22° C | 65% | 1015.6 hPa | 0 mm | - | 135 W/m² | - |
| 1778161073 | 12.22° C | 67% | 1015.5 hPa | 0 mm | - | 91 W/m² | - |
| 1778160770 | 11.67° C | 67% | 1015.7 hPa | 0 mm | - | 60 W/m² | - |
* Rain latest hour (hover to see other rain measurements)
** Current wind speed in m/s (hover to see current wind gust speed)